Time;durP1;ratioP1;P1;durP2;ratioP2;P2;SDS_P1;SDS_P2;PMS_P1;PMS_P2;Temp;Humidity;BMP_temperature;BMP_pressure;BME280_temperature;BME280_humidity;BME280_pressure;Samples;Min_cycle;Max_cycle;Signal;HPM_P1;HPM_P2
2024/02/19 00:00:18;;;;;;;25.13;3.70;;;8.80;99.90;;;;;;4983710;28;20034;-94
2024/02/19 00:02:44;;;;;;;30.42;3.05;;;8.80;99.90;;;;;;4975775;28;20026;-94
2024/02/19 00:05:10;;;;;;;29.63;3.38;;;8.80;99.90;;;;;;4984434;28;20391;-94
2024/02/19 00:07:35;;;;;;;21.80;3.00;;;8.80;99.90;;;;;;4976198;28;20490;-93
2024/02/19 00:10:01;;;;;;;30.13;4.43;;;8.80;99.90;;;;;;4979783;28;20026;-94
2024/02/19 00:12:27;;;;;;;29.02;3.63;;;8.80;99.90;;;;;;4994232;28;20487;-94
2024/02/19 00:14:53;;;;;;;36.22;4.72;;;8.80;99.90;;;;;;4985131;28;20037;-92
2024/02/19 00:17:18;;;;;;;23.75;2.85;;;8.70;99.90;;;;;;4976657;28;20030;-93
2024/02/19 00:19:44;;;;;;;35.38;5.82;;;8.70;99.90;;;;;;4972666;28;20605;-94
2024/02/19 00:22:09;;;;;;;33.42;3.80;;;8.70;99.90;;;;;;4983208;28;20054;-90
2024/02/19 00:24:35;;;;;;;28.17;3.63;;;8.70;99.90;;;;;;4993511;28;20033;-91
2024/02/19 00:27:02;;;;;;;34.50;4.55;;;8.70;99.90;;;;;;4991243;28;20030;-90
2024/02/19 00:29:27;;;;;;;28.92;3.45;;;8.70;99.90;;;;;;4975936;28;20032;-91
2024/02/19 00:31:53;;;;;;;25.40;3.97;;;8.70;99.90;;;;;;4992350;28;20026;-92
2024/02/19 00:34:18;;;;;;;28.60;3.83;;;8.70;99.90;;;;;;4976140;28;20066;-89
2024/02/19 00:36:44;;;;;;;35.83;4.55;;;8.70;99.90;;;;;;4959744;28;20398;-90
2024/02/19 00:39:09;;;;;;;22.75;3.67;;;8.70;99.90;;;;;;4970048;28;20023;-91
2024/02/19 00:41:36;;;;;;;23.45;3.55;;;8.70;99.90;;;;;;4977345;28;20026;-90
2024/02/19 00:44:02;;;;;;;27.25;3.05;;;8.70;99.90;;;;;;4975558;28;20089;-91
2024/02/19 00:46:28;;;;;;;27.88;3.50;;;8.70;99.90;;;;;;4976238;28;20022;-91
2024/02/19 00:48:53;;;;;;;24.30;3.10;;;8.70;99.90;;;;;;4975919;28;20038;-89
2024/02/19 00:51:19;;;;;;;31.85;4.47;;;8.60;99.90;;;;;;4975632;28;20486;-90
2024/02/19 00:53:45;;;;;;;31.25;3.30;;;8.60;99.90;;;;;;4974854;28;20054;-90
2024/02/19 00:56:10;;;;;;;25.08;3.05;;;8.60;99.90;;;;;;4970815;28;20051;-90
2024/02/19 00:58:36;;;;;;;28.67;3.60;;;8.70;99.90;;;;;;4972382;28;20034;-90
2024/02/19 01:01:01;;;;;;;30.50;3.97;;;8.60;99.90;;;;;;4972430;28;20089;-90
2024/02/19 01:03:27;;;;;;;25.70;3.08;;;8.60;99.90;;;;;;4976438;28;20034;-89
2024/02/19 01:05:53;;;;;;;30.77;3.15;;;8.70;99.90;;;;;;4974181;28;20490;-92
2024/02/19 01:08:19;;;;;;;27.20;3.08;;;8.60;99.90;;;;;;4974877;28;20042;-90
2024/02/19 01:10:44;;;;;;;25.95;3.10;;;8.60;99.90;;;;;;4974190;28;20018;-90
2024/02/19 01:13:10;;;;;;;28.17;2.45;;;8.60;99.90;;;;;;4972332;28;20049;-90
2024/02/19 01:15:36;;;;;;;37.63;3.65;;;8.60;99.90;;;;;;4974675;28;20034;-90
2024/02/19 01:18:02;;;;;;;24.02;2.05;;;8.60;99.90;;;;;;4982757;28;20034;-90
2024/02/19 01:20:28;;;;;;;22.52;2.72;;;8.60;99.90;;;;;;4972284;28;20033;-90
2024/02/19 01:22:53;;;;;;;29.45;3.20;;;8.60;99.90;;;;;;4974488;28;20030;-90
2024/02/19 01:25:22;;;;;;;32.17;3.78;;;8.60;99.90;;;;;;4971757;28;20085;-90
2024/02/19 01:27:47;;;;;;;19.05;2.03;;;8.60;99.90;;;;;;4974162;28;20061;-90
2024/02/19 01:30:13;;;;;;;24.75;2.55;;;8.60;99.90;;;;;;4974521;28;20474;-89
2024/02/19 01:32:39;;;;;;;17.13;1.98;;;8.60;99.90;;;;;;4980989;28;20094;-90
2024/02/19 01:35:08;;;;;;;25.38;2.40;;;8.60;99.90;;;;;;4969205;28;20058;-90
2024/02/19 01:37:34;;;;;;;29.98;2.03;;;8.60;99.90;;;;;;4955614;28;20019;-90
2024/02/19 01:40:00;;;;;;;21.65;1.85;;;8.60;99.90;;;;;;4965681;28;20033;-89
2024/02/19 01:42:25;;;;;;;29.23;3.65;;;8.60;99.90;;;;;;4961910;28;20022;-90
2024/02/19 01:44:51;;;;;;;17.63;1.52;;;8.60;99.90;;;;;;4974331;28;20482;-90
2024/02/19 01:47:17;;;;;;;23.67;2.13;;;8.60;99.90;;;;;;4970720;28;20035;-89
2024/02/19 01:49:44;;;;;;;26.40;3.30;;;8.60;99.90;;;;;;4976843;28;20410;-90
2024/02/19 01:52:10;;;;;;;37.67;2.08;;;8.60;99.90;;;;;;4975388;28;20141;-91
2024/02/19 01:54:37;;;;;;;28.38;3.05;;;8.60;99.90;;;;;;4970403;28;20030;-90
2024/02/19 01:57:03;;;;;;;21.73;1.80;;;8.60;99.90;;;;;;4936005;28;1161778;-89
2024/02/19 01:59:31;;;;;;;25.52;1.95;;;8.60;99.90;;;;;;4978734;28;20566;-89
2024/02/19 02:01:58;;;;;;;31.55;2.42;;;8.60;99.90;;;;;;4978113;28;20022;-89
2024/02/19 02:04:26;;;;;;;25.63;2.75;;;8.60;99.90;;;;;;4977698;28;20397;-89
2024/02/19 02:06:52;;;;;;;21.92;2.33;;;8.60;99.90;;;;;;4972449;28;20053;-90
2024/02/19 02:09:18;;;;;;;20.52;2.03;;;8.60;99.90;;;;;;4978352;28;20038;-90
2024/02/19 02:11:44;;;;;;;13.70;1.52;;;8.60;99.90;;;;;;4982802;28;20022;-90
2024/02/19 02:14:09;;;;;;;21.63;2.65;;;8.60;99.90;;;;;;4975413;28;20041;-90
2024/02/19 02:16:35;;;;;;;26.45;2.13;;;8.60;99.90;;;;;;4979722;28;20077;-89
2024/02/19 02:19:00;;;;;;;22.92;2.30;;;8.60;99.90;;;;;;4987524;28;20022;-91
2024/02/19 02:21:26;;;;;;;24.15;2.83;;;8.60;99.90;;;;;;4979654;28;20101;-90
2024/02/19 02:23:52;;;;;;;21.08;2.22;;;8.60;99.90;;;;;;4978694;28;20022;-90
2024/02/19 02:26:18;;;;;;;24.00;2.28;;;8.60;99.90;;;;;;4976560;28;20038;-90
2024/02/19 02:28:43;;;;;;;28.27;2.55;;;8.60;99.90;;;;;;4977138;28;20034;-90
2024/02/19 02:31:09;;;;;;;20.52;2.38;;;8.60;99.90;;;;;;4998174;28;20026;-90
2024/02/19 02:33:34;;;;;;;22.42;2.35;;;8.60;99.90;;;;;;5001050;28;20493;-89
2024/02/19 02:36:01;;;;;;;24.77;1.92;;;8.60;99.90;;;;;;4976942;28;20061;-90
2024/02/19 02:38:27;;;;;;;21.60;1.60;;;8.60;99.90;;;;;;4984258;28;20033;-90
2024/02/19 02:40:55;;;;;;;22.77;1.80;;;8.60;99.90;;;;;;4977404;28;20022;-89
2024/02/19 02:43:21;;;;;;;21.15;2.22;;;8.50;99.90;;;;;;4969176;28;20560;-90
2024/02/19 02:45:46;;;;;;;14.20;1.52;;;8.50;99.90;;;;;;4977293;28;20037;-90
2024/02/19 02:48:12;;;;;;;28.48;2.25;;;8.50;99.90;;;;;;4977036;28;20034;-90
2024/02/19 02:50:37;;;;;;;27.23;2.40;;;8.40;99.90;;;;;;4978255;28;20098;-89
2024/02/19 02:53:03;;;;;;;24.77;2.47;;;8.40;99.90;;;;;;4976670;28;20122;-90
2024/02/19 02:55:29;;;;;;;28.00;1.73;;;8.40;99.90;;;;;;4979568;28;20027;-90
2024/02/19 02:57:54;;;;;;;21.95;1.83;;;8.40;99.90;;;;;;4973572;28;20077;-89
2024/02/19 03:00:20;;;;;;;24.63;2.00;;;8.40;99.90;;;;;;4980477;28;20026;-91
2024/02/19 03:02:45;;;;;;;18.83;1.40;;;8.40;99.90;;;;;;4990170;28;20470;-90
2024/02/19 03:05:11;;;;;;;20.10;1.52;;;8.40;99.90;;;;;;4975679;28;20034;-89
2024/02/19 03:07:37;;;;;;;21.35;1.88;;;8.40;99.90;;;;;;4983304;28;20068;-90
2024/02/19 03:10:02;;;;;;;22.38;1.75;;;8.40;99.90;;;;;;4988910;28;20486;-89
2024/02/19 03:12:29;;;;;;;24.23;1.95;;;8.40;99.90;;;;;;4993982;28;20069;-89
2024/02/19 03:14:54;;;;;;;23.40;2.10;;;8.50;99.90;;;;;;4994604;28;20094;-89
2024/02/19 03:17:20;;;;;;;17.45;1.77;;;8.40;99.90;;;;;;4979673;28;20116;-90
2024/02/19 03:19:46;;;;;;;22.00;1.85;;;8.50;99.90;;;;;;4980245;28;20050;-90
2024/02/19 03:22:13;;;;;;;19.30;2.03;;;8.50;99.90;;;;;;4975133;28;20030;-89
2024/02/19 03:24:38;;;;;;;18.85;1.77;;;8.50;99.90;;;;;;4975839;28;20024;-89
2024/02/19 03:27:04;;;;;;;28.33;2.70;;;8.50;99.90;;;;;;4975606;28;20033;-89
2024/02/19 03:29:30;;;;;;;16.35;1.17;;;8.50;99.90;;;;;;4976917;28;20030;-90
2024/02/19 03:31:56;;;;;;;27.52;2.70;;;8.50;99.90;;;;;;4981330;28;20030;-90
2024/02/19 03:34:22;;;;;;;24.65;1.63;;;8.50;99.90;;;;;;4973576;28;20041;-90
2024/02/19 03:36:49;;;;;;;23.50;2.20;;;8.50;99.90;;;;;;4979831;28;20077;-90
2024/02/19 03:39:15;;;;;;;15.90;1.70;;;8.50;99.90;;;;;;5002409;28;20065;-88
2024/02/19 03:41:41;;;;;;;18.50;2.60;;;8.60;99.90;;;;;;4990193;28;20030;-90
2024/02/19 03:44:06;;;;;;;20.88;2.47;;;8.60;99.90;;;;;;4996020;28;20022;-90
2024/02/19 03:46:32;;;;;;;23.73;2.28;;;8.60;99.90;;;;;;4980042;28;20500;-89
2024/02/19 03:48:58;;;;;;;23.27;2.33;;;8.50;99.90;;;;;;4976640;28;20038;-90
2024/02/19 03:51:23;;;;;;;24.27;2.17;;;8.50;99.90;;;;;;4975677;28;20026;-89
2024/02/19 03:53:49;;;;;;;26.35;2.13;;;8.50;99.90;;;;;;4971109;28;20027;-89
2024/02/19 03:56:14;;;;;;;14.88;2.10;;;8.50;99.90;;;;;;4975230;28;20126;-89
2024/02/19 03:58:40;;;;;;;20.30;1.65;;;8.50;99.90;;;;;;4991275;28;20042;-87
2024/02/19 04:01:06;;;;;;;18.67;2.00;;;8.50;99.90;;;;;;4975001;28;20502;-89
2024/02/19 04:03:31;;;;;;;17.27;1.85;;;8.50;99.90;;;;;;4967831;28;20390;-90
2024/02/19 04:05:57;;;;;;;28.52;2.30;;;8.50;99.90;;;;;;4970072;28;20067;-88
2024/02/19 04:08:23;;;;;;;21.50;2.08;;;8.50;99.90;;;;;;4972070;28;20034;-90
2024/02/19 04:10:48;;;;;;;26.70;2.45;;;8.50;99.90;;;;;;4975321;28;20080;-89
2024/02/19 04:13:14;;;;;;;23.90;2.22;;;8.50;99.90;;;;;;4974036;28;20030;-90
2024/02/19 04:15:40;;;;;;;31.45;2.35;;;8.50;99.90;;;;;;4976351;28;20109;-89
2024/02/19 04:18:06;;;;;;;26.58;2.47;;;8.50;99.90;;;;;;4991593;28;20030;-90
2024/02/19 04:20:31;;;;;;;24.92;3.35;;;8.50;99.90;;;;;;4975374;28;20187;-90
2024/02/19 04:22:57;;;;;;;26.23;3.17;;;8.50;99.90;;;;;;4984042;28;20397;-89
2024/02/19 04:25:23;;;;;;;20.60;2.55;;;8.50;99.90;;;;;;4975150;28;20478;-89
2024/02/19 04:27:49;;;;;;;14.20;1.98;;;8.50;99.90;;;;;;4979159;28;20041;-89
2024/02/19 04:30:15;;;;;;;22.65;3.75;;;8.50;99.90;;;;;;4984294;28;20030;-90
2024/02/19 04:32:40;;;;;;;20.60;2.30;;;8.50;99.90;;;;;;4976055;28;20034;-90
2024/02/19 04:35:06;;;;;;;24.83;3.10;;;8.50;99.90;;;;;;4976077;28;20026;-90
2024/02/19 04:37:32;;;;;;;23.55;2.60;;;8.50;99.90;;;;;;4981444;28;20023;-91
2024/02/19 04:39:57;;;;;;;27.42;3.85;;;8.50;99.90;;;;;;4966425;28;20038;-89
2024/02/19 04:42:23;;;;;;;31.75;3.13;;;8.50;99.90;;;;;;4977181;28;20500;-89
2024/02/19 04:44:49;;;;;;;29.65;3.80;;;8.50;99.90;;;;;;4997771;28;20090;-89
2024/02/19 04:47:15;;;;;;;18.48;3.53;;;8.50;99.90;;;;;;4977711;28;20018;-89
2024/02/19 04:49:42;;;;;;;22.40;3.13;;;8.50;99.90;;;;;;4975699;28;20034;-89
2024/02/19 04:52:07;;;;;;;27.25;4.15;;;8.50;99.90;;;;;;4978075;28;20027;-90
2024/02/19 04:54:33;;;;;;;27.77;3.80;;;8.50;99.90;;;;;;4975660;28;20548;-89
2024/02/19 04:56:58;;;;;;;25.33;4.22;;;8.50;99.90;;;;;;4973729;28;20038;-89
2024/02/19 04:59:24;;;;;;;26.02;4.25;;;8.50;99.90;;;;;;4975823;28;20445;-89
2024/02/19 05:01:50;;;;;;;20.58;3.65;;;8.50;99.90;;;;;;4973732;28;20037;-89
2024/02/19 05:04:16;;;;;;;19.40;3.60;;;8.50;99.90;;;;;;4974679;28;20382;-90
2024/02/19 05:06:42;;;;;;;34.92;5.85;;;8.50;99.90;;;;;;4973235;28;20030;-90
2024/02/19 05:09:07;;;;;;;19.35;4.05;;;8.50;99.90;;;;;;4973446;28;20577;-89
2024/02/19 05:11:33;;;;;;;26.65;4.38;;;8.50;99.90;;;;;;4989671;28;20026;-90
2024/02/19 05:13:59;;;;;;;31.38;4.35;;;8.50;99.90;;;;;;4967916;28;20035;-91
2024/02/19 05:16:26;;;;;;;27.58;4.22;;;8.50;99.90;;;;;;4978640;28;20046;-89
2024/02/19 05:18:51;;;;;;;20.63;3.47;;;8.50;99.90;;;;;;4974934;28;20042;-90
2024/02/19 05:21:18;;;;;;;27.85;4.38;;;8.50;99.90;;;;;;4961463;28;20386;-90
2024/02/19 05:23:45;;;;;;;23.67;3.78;;;8.50;99.90;;;;;;4977411;28;20379;-89
2024/02/19 05:26:10;;;;;;;24.05;4.45;;;8.50;99.90;;;;;;4973516;28;20045;-90
2024/02/19 05:28:36;;;;;;;26.63;3.45;;;8.50;99.90;;;;;;4990077;28;20034;-89
2024/02/19 05:31:03;;;;;;;18.02;3.58;;;8.50;99.90;;;;;;4977449;28;20053;-89
2024/02/19 05:33:28;;;;;;;25.92;3.92;;;8.50;99.90;;;;;;4980854;28;20402;-88
2024/02/19 05:35:54;;;;;;;23.38;4.38;;;8.50;99.90;;;;;;4978471;28;20078;-90
2024/02/19 05:38:20;;;;;;;20.52;3.83;;;8.50;99.90;;;;;;4978884;28;20475;-89
2024/02/19 05:40:45;;;;;;;18.88;2.90;;;8.50;99.90;;;;;;4977692;28;20022;-90
2024/02/19 05:43:11;;;;;;;19.55;2.30;;;8.60;99.90;;;;;;4969918;28;20070;-89
2024/02/19 05:45:37;;;;;;;23.00;2.97;;;8.60;99.90;;;;;;4977284;28;20046;-89
2024/02/19 05:48:03;;;;;;;16.50;2.00;;;8.60;99.90;;;;;;4978259;28;20041;-90
2024/02/19 05:50:30;;;;;;;20.77;2.72;;;8.60;99.90;;;;;;4978198;28;20022;-90
2024/02/19 05:52:56;;;;;;;20.77;2.30;;;8.60;99.90;;;;;;4977437;28;20027;-90
2024/02/19 05:55:21;;;;;;;13.10;2.40;;;8.70;99.90;;;;;;4976889;28;20038;-90
2024/02/19 05:57:48;;;;;;;26.40;2.83;;;8.70;99.90;;;;;;4976343;28;20502;-91
2024/02/19 06:00:14;;;;;;;14.55;2.25;;;8.70;99.90;;;;;;4988346;28;20068;-90
2024/02/19 06:02:43;;;;;;;15.00;1.50;;;8.70;99.90;;;;;;4977570;28;20391;-91
2024/02/19 06:05:10;;;;;;;15.13;1.48;;;8.70;99.90;;;;;;4981876;28;20038;-91
2024/02/19 06:07:35;;;;;;;22.92;1.98;;;8.70;99.90;;;;;;4980689;28;20041;-92
2024/02/19 06:10:02;;;;;;;20.08;2.72;;;8.70;99.90;;;;;;4979826;28;20038;-91
2024/02/19 06:12:27;;;;;;;21.20;1.77;;;8.70;99.90;;;;;;4971706;28;20092;-92
2024/02/19 06:14:53;;;;;;;18.40;1.38;;;8.70;99.90;;;;;;4975499;28;20030;-92
2024/02/19 06:17:19;;;;;;;19.98;1.98;;;8.70;99.90;;;;;;4975715;28;20045;-92
2024/02/19 06:19:44;;;;;;;15.75;1.48;;;8.70;99.90;;;;;;4977182;28;20026;-92
2024/02/19 06:22:10;;;;;;;13.40;1.10;;;8.70;99.90;;;;;;4980428;28;20396;-93
2024/02/19 06:24:36;;;;;;;15.88;1.27;;;8.70;99.90;;;;;;4980031;28;20058;-92
2024/02/19 06:27:01;;;;;;;21.38;1.95;;;8.70;99.90;;;;;;4977159;28;20034;-92
2024/02/19 06:29:27;;;;;;;19.65;1.45;;;8.70;99.90;;;;;;4995075;28;20050;-91
2024/02/19 06:31:54;;;;;;;11.57;1.55;;;8.80;99.90;;;;;;4981679;28;20041;-92
2024/02/19 06:34:21;;;;;;;18.92;1.20;;;8.70;99.90;;;;;;4973547;28;20121;-91
2024/02/19 06:36:46;;;;;;;13.68;1.55;;;8.80;99.90;;;;;;4975182;28;20037;-91
2024/02/19 06:39:12;;;;;;;19.10;1.58;;;8.80;99.90;;;;;;4977708;28;20026;-91
2024/02/19 06:41:37;;;;;;;15.32;1.63;;;8.80;99.90;;;;;;4973570;28;20057;-90
2024/02/19 06:44:03;;;;;;;14.25;1.20;;;8.80;99.90;;;;;;4974990;28;20026;-92
2024/02/19 06:46:29;;;;;;;14.98;1.52;;;8.80;99.90;;;;;;4967024;28;20053;-91
2024/02/19 06:48:58;;;;;;;24.90;2.50;;;8.80;99.90;;;;;;4971107;28;20065;-91
2024/02/19 06:51:23;;;;;;;14.05;1.85;;;8.80;99.90;;;;;;4968397;28;20026;-90
2024/02/19 06:53:49;;;;;;;16.30;2.42;;;8.80;99.90;;;;;;4980481;28;20026;-91
2024/02/19 06:56:14;;;;;;;13.32;1.95;;;8.80;99.90;;;;;;4979759;28;20070;-91
2024/02/19 06:58:40;;;;;;;22.92;2.90;;;8.80;99.90;;;;;;4965609;28;20062;-91
2024/02/19 07:01:06;;;;;;;11.50;2.15;;;8.80;99.90;;;;;;4979436;28;20026;-90
2024/02/19 07:03:31;;;;;;;15.02;1.92;;;8.80;99.90;;;;;;4978204;28;20089;-91
2024/02/19 07:05:57;;;;;;;17.83;2.42;;;8.90;99.90;;;;;;4978450;28;20018;-91
2024/02/19 07:08:23;;;;;;;16.13;1.83;;;8.90;99.90;;;;;;4978407;28;20369;-90
2024/02/19 07:10:48;;;;;;;20.77;2.10;;;8.90;99.90;;;;;;4999987;28;20096;-91
2024/02/19 07:13:14;;;;;;;11.63;1.75;;;8.90;99.90;;;;;;4979020;28;20026;-91
2024/02/19 07:15:39;;;;;;;16.02;2.15;;;8.90;99.90;;;;;;4979387;28;20022;-91
2024/02/19 07:18:05;;;;;;;13.93;1.67;;;8.90;99.90;;;;;;4972982;28;20030;-90
2024/02/19 07:20:31;;;;;;;13.70;1.85;;;8.90;99.90;;;;;;4971083;28;20129;-91
2024/02/19 07:22:56;;;;;;;7.25;1.70;;;8.90;99.90;;;;;;4967922;28;20026;-92
2024/02/19 07:25:22;;;;;;;20.90;2.75;;;9.00;99.90;;;;;;4975327;28;20031;-92
2024/02/19 07:27:48;;;;;;;19.60;2.28;;;9.00;99.90;;;;;;4970522;28;20373;-91
2024/02/19 07:30:13;;;;;;;15.82;2.03;;;9.00;99.90;;;;;;4965096;28;20026;-91
2024/02/19 07:32:39;;;;;;;16.67;1.95;;;9.00;99.90;;;;;;4968741;28;20110;-92
2024/02/19 07:35:05;;;;;;;20.85;2.58;;;9.10;99.90;;;;;;4983285;28;20231;-92
2024/02/19 07:37:30;;;;;;;13.25;2.35;;;9.00;99.90;;;;;;4963935;28;20022;-91
2024/02/19 07:39:56;;;;;;;18.45;2.92;;;9.10;99.90;;;;;;4980023;28;20027;-92
2024/02/19 07:42:21;;;;;;;18.70;3.00;;;9.10;99.90;;;;;;4968517;28;20030;-92
2024/02/19 07:44:47;;;;;;;13.05;2.25;;;9.20;99.90;;;;;;4966121;28;20506;-91
2024/02/19 07:47:12;;;;;;;18.70;2.53;;;9.20;99.90;;;;;;4960116;28;20494;-92
2024/02/19 07:49:38;;;;;;;17.58;2.35;;;9.20;99.90;;;;;;4956285;28;20038;-91
2024/02/19 07:52:04;;;;;;;18.17;2.58;;;9.20;99.90;;;;;;4957718;28;20031;-91
2024/02/19 07:54:30;;;;;;;15.93;2.53;;;9.30;99.90;;;;;;4960429;28;20042;-92
2024/02/19 07:56:56;;;;;;;23.83;2.83;;;9.30;99.90;;;;;;4974423;28;20050;-92
2024/02/19 07:59:22;;;;;;;16.48;2.70;;;9.30;99.90;;;;;;4957109;28;20073;-92
2024/02/19 08:01:47;;;;;;;26.27;5.63;;;9.40;99.90;;;;;;4953412;28;20057;-90
2024/02/19 08:04:13;;;;;;;16.75;2.72;;;9.40;99.90;;;;;;4961739;28;20057;-91
2024/02/19 08:06:39;;;;;;;16.13;2.53;;;9.40;99.90;;;;;;4975451;28;20045;-92
2024/02/19 08:09:05;;;;;;;15.25;2.05;;;9.50;99.90;;;;;;4960088;28;20038;-91
2024/02/19 08:11:31;;;;;;;14.88;2.60;;;9.50;99.90;;;;;;4973963;28;21573;-92
2024/02/19 08:13:57;;;;;;;16.80;2.67;;;9.60;99.90;;;;;;4974157;28;20030;-92
2024/02/19 08:16:23;;;;;;;14.55;2.38;;;9.60;99.90;;;;;;4975345;28;20037;-92
2024/02/19 08:18:49;;;;;;;14.50;2.50;;;9.70;99.90;;;;;;4954231;28;20490;-90
2024/02/19 08:21:14;;;;;;;18.50;2.20;;;9.70;99.90;;;;;;4952843;28;20550;-91
2024/02/19 08:23:40;;;;;;;14.30;2.13;;;9.80;99.90;;;;;;4971391;28;20038;-91
2024/02/19 08:26:05;;;;;;;14.98;1.98;;;9.80;99.90;;;;;;4953311;28;20042;-91
2024/02/19 08:28:31;;;;;;;18.27;3.42;;;9.80;99.90;;;;;;4953937;28;20046;-92
2024/02/19 08:30:57;;;;;;;18.75;3.10;;;9.90;99.90;;;;;;4971193;28;20379;-91
2024/02/19 08:33:22;;;;;;;17.92;3.03;;;10.00;99.90;;;;;;4974959;28;20030;-91
2024/02/19 08:35:50;;;;;;;19.08;4.22;;;10.10;99.90;;;;;;4954845;28;20129;-91
2024/02/19 08:38:15;;;;;;;17.55;3.15;;;10.10;99.90;;;;;;4960865;28;20045;-91
2024/02/19 08:40:41;;;;;;;20.52;3.45;;;10.10;99.90;;;;;;4956428;28;20026;-92
2024/02/19 08:43:10;;;;;;;23.40;3.45;;;10.20;99.90;;;;;;4954229;28;20049;-91
2024/02/19 08:45:39;;;;;;;19.60;3.47;;;10.20;99.90;;;;;;4958492;28;20030;-90
2024/02/19 08:48:06;;;;;;;20.30;4.13;;;10.30;99.90;;;;;;4956399;28;21994;-91
2024/02/19 08:50:31;;;;;;;18.52;4.05;;;10.40;99.90;;;;;;4957077;28;20057;-90
2024/02/19 08:52:57;;;;;;;13.43;3.03;;;10.40;99.90;;;;;;4953107;28;20482;-92
2024/02/19 08:55:22;;;;;;;16.63;3.53;;;10.40;99.90;;;;;;4954187;28;20649;-90
2024/02/19 08:57:48;;;;;;;17.98;3.80;;;10.40;99.90;;;;;;4953272;28;20058;-91
2024/02/19 09:00:14;;;;;;;16.95;4.47;;;10.30;99.90;;;;;;4975042;28;20113;-91
2024/02/19 09:02:42;;;;;;;16.38;4.15;;;10.30;99.90;;;;;;4959366;28;20027;-91
2024/02/19 09:05:09;;;;;;;16.90;3.47;;;10.30;99.90;;;;;;4961296;28;20030;-92
2024/02/19 09:07:35;;;;;;;13.40;3.17;;;10.30;99.90;;;;;;4977131;28;20034;-91
2024/02/19 09:10:01;;;;;;;17.88;4.38;;;10.20;99.90;;;;;;4960282;28;20042;-91
2024/02/19 09:12:26;;;;;;;13.73;3.67;;;10.20;99.90;;;;;;4975341;28;20031;-89
2024/02/19 09:14:55;;;;;;;22.27;5.20;;;10.20;99.90;;;;;;4956875;28;20538;-91
2024/02/19 09:17:21;;;;;;;17.42;4.40;;;10.20;99.90;;;;;;4977480;28;20035;-89
2024/02/19 09:19:47;;;;;;;23.20;5.60;;;10.20;99.90;;;;;;4960384;28;20080;-90
2024/02/19 09:22:14;;;;;;;20.23;4.82;;;10.30;99.90;;;;;;4961780;28;20454;-89
2024/02/19 09:24:41;;;;;;;20.33;5.28;;;10.30;99.90;;;;;;4963567;28;20479;-89
2024/02/19 09:27:07;;;;;;;22.40;5.88;;;10.30;99.90;;;;;;4965003;28;20077;-89
2024/02/19 09:29:32;;;;;;;17.52;5.18;;;10.30;99.90;;;;;;4958995;28;20442;-90
2024/02/19 09:31:58;;;;;;;18.23;5.00;;;10.40;99.90;;;;;;4958543;28;20050;-89
2024/02/19 09:34:24;;;;;;;14.60;5.65;;;10.40;99.90;;;;;;4960188;28;20040;-91
2024/02/19 09:36:50;;;;;;;22.02;6.10;;;10.40;99.90;;;;;;4956812;28;20418;-91
2024/02/19 09:39:16;;;;;;;18.10;5.85;;;10.50;99.90;;;;;;4960086;28;20046;-92
2024/02/19 09:41:42;;;;;;;21.63;5.93;;;10.50;99.90;;;;;;4957525;28;20031;-91
2024/02/19 09:44:08;;;;;;;25.50;7.20;;;10.50;99.90;;;;;;4972544;28;20031;-91
2024/02/19 09:46:33;;;;;;;21.45;7.60;;;10.60;99.90;;;;;;4956890;28;20093;-92
2024/02/19 09:49:00;;;;;;;23.02;6.95;;;10.50;99.90;;;;;;4960794;28;20038;-91
2024/02/19 09:51:28;;;;;;;25.70;7.03;;;10.50;99.90;;;;;;4961778;28;20034;-91
2024/02/19 09:53:55;;;;;;;21.38;7.20;;;10.50;99.90;;;;;;4978678;28;20081;-91
2024/02/19 09:56:26;;;;;;;24.75;7.47;;;10.60;99.90;;;;;;4961162;28;21362;-91
2024/02/19 09:58:51;;;;;;;24.13;7.65;;;10.60;99.90;;;;;;4968444;28;20030;-90
2024/02/19 10:01:17;;;;;;;26.80;7.95;;;10.60;99.90;;;;;;4961132;28;20461;-87
2024/02/19 10:03:43;;;;;;;15.90;6.65;;;10.60;99.90;;;;;;4963432;28;20046;-90
2024/02/19 10:06:09;;;;;;;25.45;7.13;;;10.70;99.90;;;;;;4978242;28;20023;-88
2024/02/19 10:08:35;;;;;;;23.05;7.40;;;10.70;99.90;;;;;;4965848;28;20133;-91
2024/02/19 10:11:08;;;;;;;25.20;8.07;;;10.70;99.90;;;;;;4961378;28;20153;-91
2024/02/19 10:13:36;;;;;;;22.35;7.97;;;10.70;99.90;;;;;;4964659;28;20130;-90
2024/02/19 10:16:01;;;;;;;24.15;7.65;;;10.80;99.90;;;;;;4967390;28;20034;-91
2024/02/19 10:18:27;;;;;;;21.73;7.15;;;10.80;99.90;;;;;;4975141;28;20042;-91
2024/02/19 10:20:53;;;;;;;19.65;7.07;;;10.80;99.90;;;;;;4960650;28;20053;-92
2024/02/19 10:23:20;;;;;;;25.38;7.13;;;10.80;99.90;;;;;;4957856;28;20440;-92
2024/02/19 10:25:46;;;;;;;20.20;7.35;;;10.80;99.90;;;;;;4957940;28;20770;-92
2024/02/19 10:28:12;;;;;;;19.55;6.72;;;10.80;99.90;;;;;;4955540;28;21412;-92
2024/02/19 10:30:39;;;;;;;25.45;7.03;;;10.70;99.90;;;;;;4961960;28;20038;-91
2024/02/19 10:33:05;;;;;;;25.33;8.50;;;10.80;99.90;;;;;;4968606;28;20029;-92
2024/02/19 10:35:32;;;;;;;25.10;7.70;;;10.80;99.90;;;;;;4976856;28;20031;-91
2024/02/19 10:38:00;;;;;;;22.23;8.38;;;10.80;99.90;;;;;;4975472;28;20023;-92
2024/02/19 10:40:27;;;;;;;18.38;7.43;;;10.90;99.90;;;;;;4972565;28;20106;-92
2024/02/19 10:42:53;;;;;;;19.25;6.55;;;10.90;99.90;;;;;;4972537;28;20121;-91
2024/02/19 10:45:21;;;;;;;20.05;7.13;;;10.90;99.90;;;;;;4972922;28;20470;-91
2024/02/19 10:47:47;;;;;;;17.70;7.05;;;11.00;99.90;;;;;;4975872;28;20042;-92
2024/02/19 10:50:23;;;;;;;18.90;6.82;;;11.00;99.90;;;;;;4974477;28;20030;-91
2024/02/19 10:52:49;;;;;;;19.55;7.32;;;11.00;99.90;;;;;;4991492;28;20114;-91
2024/02/19 10:55:16;;;;;;;16.77;6.78;;;11.00;99.90;;;;;;4973508;28;20023;-91
2024/02/19 10:57:50;;;;;;;18.90;6.90;;;11.00;99.90;;;;;;4973277;28;20046;-91
2024/02/19 11:00:17;;;;;;;16.92;6.30;;;11.10;99.90;;;;;;4990259;28;20379;-89
2024/02/19 11:02:43;;;;;;;20.33;7.20;;;11.10;99.90;;;;;;4969820;28;20029;-89
2024/02/19 11:05:13;;;;;;;17.65;6.10;;;11.20;99.90;;;;;;4971901;28;20044;-90
2024/02/19 11:07:42;;;;;;;20.67;7.20;;;11.20;99.90;;;;;;4972613;28;20065;-91
2024/02/19 11:10:08;;;;;;;19.95;6.63;;;11.20;99.90;;;;;;4973789;28;20041;-91
2024/02/19 11:12:35;;;;;;;20.60;6.88;;;11.20;99.90;;;;;;4989657;28;20139;-91
2024/02/19 11:15:01;;;;;;;12.38;5.97;;;11.20;99.90;;;;;;4988469;28;20308;-90
2024/02/19 11:17:28;;;;;;;14.85;5.95;;;11.30;99.90;;;;;;4991531;28;20022;-92
2024/02/19 11:19:54;;;;;;;22.42;6.93;;;11.20;99.90;;;;;;4975357;28;20027;-91
2024/02/19 11:22:30;;;;;;;18.55;6.28;;;11.20;99.90;;;;;;4974802;28;20021;-90
2024/02/19 11:24:57;;;;;;;12.85;5.72;;;11.20;99.90;;;;;;4990421;28;20034;-90
2024/02/19 11:27:23;;;;;;;17.30;6.43;;;11.30;99.90;;;;;;4990163;28;20040;-90
2024/02/19 11:29:56;;;;;;;17.42;6.05;;;11.30;99.90;;;;;;4990598;28;20034;-91
2024/02/19 11:32:23;;;;;;;15.30;6.25;;;11.30;99.90;;;;;;4984909;28;20030;-91
2024/02/19 11:34:49;;;;;;;19.38;5.95;;;11.30;99.90;;;;;;4972740;28;20104;-91
2024/02/19 11:37:15;;;;;;;18.20;5.72;;;11.40;99.90;;;;;;4970612;28;20076;-88
2024/02/19 11:39:43;;;;;;;17.05;5.88;;;11.40;99.90;;;;;;4971759;28;20027;-91
2024/02/19 11:42:11;;;;;;;17.90;5.53;;;11.40;99.90;;;;;;4971699;28;20084;-91
2024/02/19 11:44:37;;;;;;;16.90;6.57;;;11.40;99.90;;;;;;4986443;28;20026;-91
2024/02/19 11:47:03;;;;;;;15.52;5.72;;;11.40;99.90;;;;;;4974496;28;20494;-90
2024/02/19 11:49:29;;;;;;;18.35;5.50;;;11.40;99.90;;;;;;4969431;28;20027;-90
2024/02/19 11:51:55;;;;;;;17.73;5.15;;;11.40;99.90;;;;;;4977183;28;20026;-90
2024/02/19 11:54:21;;;;;;;14.48;4.35;;;11.40;99.90;;;;;;4974606;28;20057;-90
2024/02/19 11:56:51;;;;;;;14.05;5.10;;;11.40;99.90;;;;;;4964370;28;20047;-92
2024/02/19 11:59:17;;;;;;;14.75;5.28;;;11.40;99.90;;;;;;4967763;28;20118;-89
2024/02/19 12:01:44;;;;;;;14.23;5.45;;;11.40;99.90;;;;;;4973156;28;20045;-91
2024/02/19 12:04:13;;;;;;;13.95;4.43;;;11.40;99.90;;;;;;4976748;28;20490;-91
2024/02/19 12:06:40;;;;;;;16.15;4.95;;;11.40;99.90;;;;;;4970556;28;20065;-89
2024/02/19 12:09:09;;;;;;;13.38;5.18;;;11.40;99.90;;;;;;4978407;28;20042;-90
2024/02/19 12:11:35;;;;;;;18.15;5.07;;;11.40;99.90;;;;;;4973321;28;20030;-90
2024/02/19 12:14:04;;;;;;;17.45;5.88;;;11.30;99.90;;;;;;4976785;28;20022;-90
2024/02/19 12:16:30;;;;;;;12.05;4.55;;;11.30;99.90;;;;;;4993849;28;20019;-91
2024/02/19 12:18:55;;;;;;;13.93;4.60;;;11.30;99.90;;;;;;4983661;28;20031;-89
2024/02/19 12:21:22;;;;;;;15.07;5.38;;;11.20;99.90;;;;;;4989445;28;20084;-90
2024/02/19 12:23:50;;;;;;;18.77;4.93;;;11.20;99.90;;;;;;4993782;28;20034;-90
2024/02/19 12:26:16;;;;;;;15.63;4.97;;;11.20;99.90;;;;;;4985328;28;20023;-84
2024/02/19 12:28:42;;;;;;;18.02;5.75;;;11.20;99.90;;;;;;4981903;28;20053;-91
2024/02/19 12:31:08;;;;;;;21.02;5.63;;;11.20;99.90;;;;;;4972441;28;20023;-89
2024/02/19 12:33:37;;;;;;;16.75;6.40;;;11.00;99.90;;;;;;4974653;28;20041;-91
2024/02/19 12:36:08;;;;;;;20.67;7.22;;;11.10;99.90;;;;;;4990942;28;20033;-90